Weather at Bangor International Airport

Public forecast

Using degrees Fahrenheit for public forecast. Weather courtesy of forecast.io.

Current aviation weather report (METAR) for Bangor International Airport

Report is more than 6 hours old.

2022/11/14 14:53 (retrieved 2 years ago)

KBGR 141453Z 31020G30KT 10SM SCT035 01/M08 A3006 RMK AO2 PK WND 30032/1415 SLP183 T00111078 51027

Aviation forecast (TAF) for Bangor International Airport

Forecast is more than 12 hours old.

2023/02/22 18:33 (retrieved 1 year ago)

TAF KBGR 221731Z 2218/2318 31012G20KT P6SM FEW040 BKN200 FM230000 33008KT P6SM BKN200 FM230300 36008KT P6SM OVC050 FM230700 03010KT 2SM -SN BR OVC025 FM230900 03010G18KT 3/4SM -SN BR SCT015 OVC025